Ignacio, CO (81137)

6:46 AM MST on December 26, 2014 (GMT -0700)
AMPT test site | Change Station
CLOSE
Current Station
Personal Weather Station
Location: Durango, CO
Elevation: 6696 ft
Nearby Weather Stations
Active Advisory: Winter Storm Warning Active Notice: Local Storm Report

Elev 6696 ft 37.16 °N, 107.74 °W | Updated 46 seconds ago

Snow
Snow
22.0 °F
Feels Like 22 °F
N
3.0
Wind Variable Wind from WSW
Gusts 4.0 mph

Today
High -- | Low -- °F
--% Chance of Precip.
Yesterday
High -- | Low -- °F
Precip. -- in
7:22 AM 4:59 PM
Waxing Crescent, 26% visible
Pressure 29.68 in
Visibility 5.0 miles
Clouds Mostly Cloudy 1500 ft
Overcast 2000 ft
Windchill 22 °F
Dew Point 20 °F
Humidity 92%
Rainfall -999.00 in
Snow Depth Not available.
UV 0 out of 12
Pollen .40 out of 12
Air Quality Not available.
Flu Activity Not available.
SPECI KDRO 261337Z AUTO 27004KT 5SM -SN BR BKN015 OVC020 M06/M07 A2968 RMK AO2 P0001 T10611072

More Conditions Fewer Conditions

Pressure 29.68 in
Visibility 5.0 miles
Clouds Mostly Cloudy 1500 ft
Overcast 2000 ft
Windchill 22 °F
Dew Point 20 °F
Humidity 92%
Rainfall -999.00 in
Snow Depth Not available.
UV 0 out of 12
Pollen .40 out of 12
Air Quality Not available.
Flu Activity Not available.
SPECI KDRO 261337Z AUTO 27004KT 5SM -SN BR BKN015 OVC020 M06/M07 A2968 RMK AO2 P0001 T10611072

More Conditions Fewer Conditions

10-Day Weather Forecast

Almanac

Astronomy

Dec. 26, 2014 Rise Set
Actual Time
Civil Twilight
Nautical Twilight
Astronomical Twilight
Moon
Length of Visible Light
Length of Day
Tomorrow will be .
, % of the Moon is Illuminated

Today's Extremes

State Highs State Lows

Community

WunderPhotos

Upload Photos

1,780,593 photos uploaded!

WunderBlogs® & News

Nearby

Air Quality

  Air Quality AQ Index Pollutant
Not available.

Snow Depth

Station Depth Elevation

Earthquake Activity

City Distance Mag. Time & Date
Minimum magnitude displayed is 2.5.

Coastal Water Temperatures

Place Temperature

Nearby Weather Stations